createdAt,value
2022-10-10T06:06:20.199Z,6.38
2022-10-10T06:08:47.746Z,6.37
2022-10-10T06:11:17.161Z,6.27
2022-10-10T06:13:45.212Z,6.33
2022-10-10T06:16:12.999Z,6.36
2022-10-10T06:18:40.605Z,6.38
2022-10-10T06:21:09.030Z,6.57
2022-10-10T06:23:37.921Z,6.51
2022-10-10T06:26:05.512Z,6.51
2022-10-10T06:28:34.494Z,6.56
2022-10-10T06:31:03.536Z,6.65
2022-10-10T06:33:31.262Z,6.75
2022-10-10T06:35:58.835Z,6.85
2022-10-10T06:38:27.514Z,6.90
2022-10-10T06:41:00.389Z,6.98
2022-10-10T06:43:28.226Z,7.00
2022-10-10T06:45:55.751Z,7.03
2022-10-10T06:48:23.351Z,7.11
2022-10-10T06:50:58.517Z,7.21
2022-10-10T06:53:26.965Z,7.24
2022-10-10T06:55:56.610Z,7.36
2022-10-10T06:58:25.485Z,7.40
2022-10-10T07:00:53.807Z,7.47
2022-10-10T07:03:22.244Z,7.55
2022-10-10T07:05:51.538Z,7.61
2022-10-10T07:08:19.481Z,7.62
2022-10-10T07:10:47.200Z,7.66
2022-10-10T07:13:16.488Z,7.72
2022-10-10T07:15:44.222Z,7.73
2022-10-10T07:18:12.219Z,7.80
2022-10-10T07:20:40.736Z,7.82
2022-10-10T07:23:08.393Z,7.81
2022-10-10T07:25:38.829Z,7.82
2022-10-10T07:28:06.712Z,7.88
2022-10-10T07:30:40.686Z,8.03
2022-10-10T07:33:08.338Z,8.13
2022-10-10T07:35:35.951Z,8.26
2022-10-10T07:38:03.952Z,8.28
2022-10-10T07:40:31.568Z,8.33
2022-10-10T07:42:59.607Z,8.44
2022-10-10T07:45:27.294Z,8.59
2022-10-10T07:47:56.216Z,8.65
2022-10-10T07:50:25.971Z,8.74
2022-10-10T07:52:53.607Z,8.82
2022-10-10T07:55:21.195Z,8.74
2022-10-10T07:57:53.136Z,8.88
2022-10-10T08:00:21.191Z,8.87
2022-10-10T08:02:48.994Z,9.00
2022-10-10T08:05:17.998Z,9.09
2022-10-10T08:07:45.764Z,9.17
2022-10-10T08:10:13.374Z,9.18
2022-10-10T08:12:40.936Z,9.26
2022-10-10T08:15:09.521Z,9.25
2022-10-10T08:17:37.109Z,9.40
2022-10-10T08:20:05.087Z,9.49
2022-10-10T08:22:34.032Z,9.60
2022-10-10T08:25:01.577Z,9.67
2022-10-10T08:27:29.220Z,9.74
2022-10-10T08:29:56.771Z,9.80
2022-10-10T08:32:24.334Z,9.92
2022-10-10T08:34:52.035Z,9.81
2022-10-10T08:37:19.582Z,9.76
2022-10-10T08:39:48.493Z,9.60
2022-10-10T08:42:17.954Z,9.68
2022-10-10T08:44:47.855Z,9.87
2022-10-10T08:47:19.031Z,9.84
2022-10-10T08:49:48.931Z,10.10
2022-10-10T08:52:24.270Z,10.33
2022-10-10T08:54:58.281Z,10.56
2022-10-10T08:57:29.657Z,10.61
2022-10-10T09:00:01.085Z,10.52
2022-10-10T09:03:01.171Z,10.68
2022-10-10T09:05:21.759Z,10.88
2022-10-10T09:07:59.181Z,11.08
2022-10-10T09:10:32.534Z,11.19
2022-10-10T09:13:06.161Z,11.39
2022-10-10T09:15:36.752Z,11.67
2022-10-10T09:18:09.654Z,11.75
2022-10-10T09:20:45.021Z,11.92
2022-10-10T09:23:20.347Z,12.08
2022-10-10T09:25:52.422Z,12.19
2022-10-10T09:28:23.372Z,12.33
2022-10-10T09:30:53.780Z,12.32
2022-10-10T09:33:28.054Z,12.35
2022-10-10T09:35:57.839Z,12.45
2022-10-10T09:38:33.075Z,12.54
2022-10-10T09:41:04.097Z,12.71
2022-10-10T09:43:33.150Z,12.80
2022-10-10T09:46:01.134Z,12.85
2022-10-10T09:48:31.995Z,12.98
2022-10-10T09:51:00.415Z,13.18
2022-10-10T09:53:28.278Z,13.25
2022-10-10T09:55:55.948Z,13.40
2022-10-10T09:58:28.993Z,13.46
2022-10-10T10:00:57.048Z,13.42
2022-10-10T10:03:24.964Z,13.52
2022-10-10T10:05:57.834Z,13.71
2022-10-10T10:08:28.102Z,13.87
2022-10-10T10:10:58.690Z,14.15
2022-10-10T10:13:29.986Z,14.34
2022-10-10T10:16:04.390Z,14.43
2022-10-10T10:18:32.763Z,14.64
2022-10-10T10:21:19.340Z,14.80
2022-10-10T10:23:53.186Z,14.93
2022-10-10T10:26:23.709Z,15.19
2022-10-10T10:28:53.758Z,15.17
2022-10-10T10:31:42.650Z,15.53
2022-10-10T10:34:27.398Z,15.59
2022-10-10T10:36:58.682Z,15.68
2022-10-10T10:39:38.464Z,15.71
2022-10-10T10:42:11.854Z,15.69
2022-10-10T10:44:43.545Z,15.67
2022-10-10T10:47:30.249Z,15.65
2022-10-10T10:50:07.109Z,16.02
2022-10-10T10:52:49.865Z,16.17
2022-10-10T10:55:23.610Z,16.24
2022-10-10T10:58:28.359Z,16.30
2022-10-10T11:01:23.827Z,16.55
2022-10-10T11:05:18.611Z,16.70
2022-10-10T11:07:17.940Z,16.63
2022-10-10T11:09:51.479Z,16.78
2022-10-10T11:12:24.875Z,16.99
2022-10-10T11:14:56.614Z,17.05
2022-10-10T11:17:36.227Z,17.24
2022-10-10T11:20:09.606Z,17.12
2022-10-10T11:22:46.381Z,17.25
2022-10-10T11:25:17.750Z,17.51
2022-10-10T11:27:48.033Z,17.39
2022-10-10T11:30:17.256Z,17.49
2022-10-10T11:32:52.976Z,17.71
2022-10-10T11:35:31.952Z,17.87
2022-10-10T11:38:04.222Z,17.86
2022-10-10T11:40:38.107Z,17.92
2022-10-10T11:43:09.087Z,17.89
2022-10-10T11:45:45.293Z,17.89
2022-10-10T11:48:26.935Z,18.09
2022-10-10T11:50:59.215Z,18.23
2022-10-10T11:53:32.509Z,18.23
2022-10-10T11:56:04.589Z,18.17
2022-10-10T11:58:35.932Z,18.14
2022-10-10T12:01:07.895Z,18.19
2022-10-10T12:03:36.939Z,18.47
2022-10-10T12:06:10.030Z,18.42
2022-10-10T12:08:39.937Z,18.57
2022-10-10T12:11:13.651Z,18.67
2022-10-10T12:13:43.258Z,18.63
2022-10-10T12:16:12.738Z,18.85
2022-10-10T12:18:44.710Z,19.10
2022-10-10T12:21:14.337Z,19.34
2022-10-10T12:23:42.919Z,19.10
2022-10-10T12:26:15.591Z,19.19
2022-10-10T12:29:02.362Z,19.21
2022-10-10T12:31:37.220Z,19.22
2022-10-10T12:34:15.643Z,19.17
2022-10-10T12:37:21.640Z,19.38
2022-10-10T12:40:03.231Z,19.32
2022-10-10T12:42:33.513Z,19.46
2022-10-10T12:45:01.459Z,19.31
2022-10-10T12:47:53.016Z,19.26
2022-10-10T12:50:24.743Z,19.25
2022-10-10T12:52:54.492Z,19.21
2022-10-10T12:55:23.892Z,19.23
2022-10-10T12:57:52.976Z,19.22
2022-10-10T13:00:23.229Z,19.19
2022-10-10T13:02:53.025Z,19.22
2022-10-10T13:05:35.050Z,19.31
2022-10-10T13:08:05.493Z,19.47
2022-10-10T13:10:33.973Z,19.72
2022-10-10T13:13:04.101Z,19.54
2022-10-10T13:15:33.946Z,19.77
2022-10-10T13:18:02.180Z,19.97
2022-10-10T13:20:36.945Z,20.14
2022-10-10T13:23:06.484Z,20.16
2022-10-10T13:25:41.146Z,20.16
2022-10-10T13:28:17.708Z,20.25
2022-10-10T13:30:45.999Z,20.15
2022-10-10T13:33:17.506Z,20.08
2022-10-10T13:35:47.272Z,20.30
2022-10-10T13:38:16.553Z,20.35
2022-10-10T13:40:45.037Z,20.04
2022-10-10T13:43:15.075Z,19.88
2022-10-10T13:45:46.686Z,19.79
2022-10-10T13:48:29.183Z,20.07
2022-10-10T13:51:07.767Z,19.96
2022-10-10T13:53:50.544Z,19.81
2022-10-10T13:56:22.744Z,19.64
2022-10-10T13:58:52.618Z,19.66
2022-10-10T14:01:32.336Z,19.57
2022-10-10T14:04:04.856Z,19.79
2022-10-10T14:06:34.929Z,19.74
2022-10-10T14:09:11.043Z,19.82
2022-10-10T14:11:39.546Z,19.81
2022-10-10T14:14:09.720Z,19.87
2022-10-10T14:16:38.027Z,19.79
2022-10-10T14:19:16.458Z,19.71
2022-10-10T14:21:46.961Z,19.82
2022-10-10T14:24:16.236Z,19.90
2022-10-10T14:26:45.825Z,20.04
2022-10-10T14:29:14.838Z,20.01
2022-10-10T14:31:45.307Z,20.12
2022-10-10T14:34:13.979Z,19.97
2022-10-10T14:36:48.238Z,19.86
2022-10-10T14:39:17.021Z,19.91
2022-10-10T14:41:45.242Z,19.85
2022-10-10T14:44:13.546Z,20.03
2022-10-10T14:46:41.696Z,19.97
2022-10-10T14:49:16.406Z,19.91
2022-10-10T14:51:44.094Z,19.85
2022-10-10T14:54:14.343Z,19.75
2022-10-10T14:57:07.169Z,19.68
2022-10-10T14:59:48.509Z,19.49
2022-10-10T15:02:18.442Z,19.43
2022-10-10T15:04:46.018Z,19.28
2022-10-10T15:07:15.249Z,19.25
2022-10-10T15:10:09.740Z,19.15
2022-10-10T15:12:32.401Z,19.05
2022-10-10T15:14:59.925Z,19.13
2022-10-10T15:17:29.584Z,19.17
2022-10-10T15:19:57.170Z,19.19
2022-10-10T15:22:24.775Z,19.27
2022-10-10T15:24:53.679Z,19.31
2022-10-10T15:27:21.486Z,19.28
2022-10-10T15:29:49.093Z,19.20
2022-10-10T15:32:16.628Z,19.18
2022-10-10T15:34:44.162Z,19.02
2022-10-10T15:37:11.749Z,18.95
2022-10-10T15:39:41.068Z,18.84
2022-10-10T15:42:16.100Z,18.79
2022-10-10T15:44:47.175Z,18.70
2022-10-10T15:47:16.199Z,18.60
2022-10-10T15:49:44.246Z,18.51
2022-10-10T15:52:11.978Z,18.45
2022-10-10T15:54:39.714Z,18.41
2022-10-10T15:57:07.745Z,18.24
2022-10-10T15:59:39.196Z,18.14
2022-10-10T16:02:10.819Z,18.05
2022-10-10T16:04:38.570Z,17.95
2022-10-10T16:07:24.542Z,17.87
2022-10-10T16:09:54.506Z,17.81
2022-10-10T16:12:22.135Z,17.72
2022-10-10T16:14:51.094Z,17.70
2022-10-10T16:17:23.183Z,17.58
2022-10-10T16:19:51.474Z,17.58
2022-10-10T16:22:19.055Z,17.54
2022-10-10T16:24:58.325Z,17.40
2022-10-10T16:27:36.559Z,17.36
2022-10-10T16:30:06.797Z,17.40
2022-10-10T16:32:39.310Z,17.31
2022-10-10T16:35:09.738Z,17.28
2022-10-10T16:37:37.339Z,17.31
2022-10-10T16:40:05.675Z,17.39
2022-10-10T16:42:33.305Z,17.37
2022-10-10T16:45:00.804Z,17.31
2022-10-10T16:47:29.736Z,17.30
2022-10-10T16:49:57.285Z,17.27
2022-10-10T16:52:24.828Z,17.26
2022-10-10T16:54:52.620Z,17.22
2022-10-10T16:57:20.254Z,17.15
2022-10-10T16:59:47.922Z,17.24
2022-10-10T17:02:16.296Z,16.99
2022-10-10T17:04:45.217Z,16.92
2022-10-10T17:07:12.790Z,16.82
2022-10-10T17:09:40.350Z,16.67
2022-10-10T17:12:08.050Z,16.73
2022-10-10T17:14:35.654Z,16.68
2022-10-10T17:17:18.532Z,16.60
2022-10-10T17:19:49.134Z,16.42
2022-10-10T17:22:17.344Z,16.28
2022-10-10T17:24:45.168Z,16.22
2022-10-10T17:27:13.150Z,16.19
2022-10-10T17:29:40.708Z,16.08
2022-10-10T17:32:08.287Z,16.05
2022-10-10T17:34:36.127Z,16.11
2022-10-10T17:37:05.441Z,15.83
2022-10-10T17:39:33.095Z,15.82
2022-10-10T17:42:01.040Z,15.78
2022-10-10T17:44:28.765Z,15.58
2022-10-10T17:46:56.506Z,15.60
2022-10-10T17:49:24.573Z,15.58
2022-10-10T17:51:52.334Z,15.54
2022-10-10T17:54:23.185Z,15.62
2022-10-10T17:56:50.773Z,15.66
2022-10-10T17:59:18.397Z,15.77
2022-10-10T18:01:46.404Z,15.69
2022-10-10T18:04:15.481Z,15.55
2022-10-10T18:06:43.209Z,15.33
2022-10-10T18:09:10.867Z,15.20
2022-10-10T18:11:39.833Z,15.26
2022-10-10T18:14:07.877Z,15.27
2022-10-10T18:16:36.029Z,15.16
2022-10-10T18:19:04.637Z,15.15
2022-10-10T18:21:32.363Z,15.01
2022-10-10T18:24:00.619Z,15.04
2022-10-10T18:26:30.079Z,15.02
2022-10-10T18:28:59.372Z,14.94
2022-10-10T18:31:28.343Z,14.94
2022-10-10T18:33:56.464Z,14.84
2022-10-10T18:36:26.190Z,14.74
2022-10-10T18:38:53.741Z,14.71
2022-10-10T18:41:22.355Z,14.56
2022-10-10T18:43:50.672Z,14.54
2022-10-10T18:46:22.163Z,14.37
2022-10-10T18:48:53.868Z,14.40
2022-10-10T18:51:26.047Z,14.47
2022-10-10T18:53:56.232Z,14.44
2022-10-10T18:56:25.158Z,14.41
2022-10-10T18:58:54.609Z,14.25
2022-10-10T19:01:25.509Z,14.19
2022-10-10T19:03:53.922Z,14.17
2022-10-10T19:06:22.691Z,14.22
2022-10-10T19:08:51.991Z,14.21
2022-10-10T19:11:21.902Z,14.17
2022-10-10T19:13:50.210Z,14.28
2022-10-10T19:16:18.374Z,14.15
2022-10-10T19:18:47.476Z,14.14
2022-10-10T19:21:18.834Z,14.09
2022-10-10T19:23:46.801Z,14.07
2022-10-10T19:26:16.049Z,14.11
2022-10-10T19:28:44.291Z,14.06
2022-10-10T19:31:17.628Z,14.01
2022-10-10T19:33:51.620Z,13.96
2022-10-10T19:36:19.991Z,14.05
2022-10-10T19:38:48.340Z,14.09
2022-10-10T19:41:17.094Z,14.03
2022-10-10T19:43:48.668Z,14.02
2022-10-10T19:46:18.955Z,14.02
2022-10-10T19:48:49.113Z,13.98
2022-10-10T19:51:18.810Z,14.04
2022-10-10T19:53:47.672Z,13.94
2022-10-10T19:56:20.593Z,13.96
2022-10-10T19:58:49.084Z,13.97
2022-10-10T20:01:19.097Z,13.98
2022-10-10T20:03:49.349Z,14.01
2022-10-10T20:06:19.875Z,13.98
2022-10-10T20:08:48.787Z,14.09
2022-10-10T20:11:18.724Z,13.98
2022-10-10T20:13:47.271Z,14.03
2022-10-10T20:16:16.670Z,14.06
2022-10-10T20:18:45.224Z,14.02
2022-10-10T20:21:18.054Z,13.89
2022-10-10T20:23:47.031Z,13.88
2022-10-10T20:26:17.183Z,13.79
2022-10-10T20:28:46.261Z,13.80
2022-10-10T20:31:20.254Z,13.90
2022-10-10T20:33:49.174Z,13.98
2022-10-10T20:36:19.738Z,13.93
2022-10-10T20:38:52.872Z,13.98
2022-10-10T20:41:23.719Z,13.97
2022-10-10T20:43:51.803Z,13.97
2022-10-10T20:46:20.293Z,13.91
2022-10-10T20:48:55.120Z,13.80
2022-10-10T20:51:25.086Z,13.98
2022-10-10T20:53:57.192Z,13.88
2022-10-10T20:56:26.370Z,13.89
2022-10-10T20:58:55.188Z,13.73
2022-10-10T21:01:25.285Z,13.79
2022-10-10T21:03:53.001Z,13.91
2022-10-10T21:06:22.898Z,13.94
2022-10-10T21:08:52.630Z,13.92
2022-10-10T21:11:20.756Z,13.83
2022-10-10T21:13:54.062Z,13.79
2022-10-10T21:16:23.588Z,13.77
2022-10-10T21:18:57.686Z,13.82
2022-10-10T21:21:26.895Z,13.80
2022-10-10T21:23:56.707Z,13.79
2022-10-10T21:26:29.577Z,13.72
2022-10-10T21:28:57.985Z,13.72
2022-10-10T21:31:27.623Z,13.70
2022-10-10T21:33:55.361Z,13.65
2022-10-10T21:36:24.094Z,13.56
2022-10-10T21:38:51.692Z,13.58
2022-10-10T21:41:21.893Z,13.54
2022-10-10T21:43:52.159Z,13.60
2022-10-10T21:46:23.397Z,13.55
2022-10-10T21:48:51.355Z,13.49
2022-10-10T21:51:19.192Z,13.53
2022-10-10T21:53:46.933Z,13.51
2022-10-10T21:56:14.883Z,13.41
2022-10-10T21:58:45.161Z,13.38
2022-10-10T22:01:14.965Z,13.32
2022-10-10T22:03:43.264Z,13.23
2022-10-10T22:06:12.758Z,13.17
2022-10-10T22:08:41.915Z,13.10
2022-10-10T22:11:12.100Z,13.06
2022-10-10T22:13:40.050Z,13.00
2022-10-10T22:16:09.571Z,12.91
2022-10-10T22:18:37.787Z,13.01
2022-10-10T22:21:06.639Z,13.14
2022-10-10T22:23:34.551Z,12.98
2022-10-10T22:26:02.677Z,13.08
2022-10-10T22:28:30.497Z,13.03
2022-10-10T22:30:58.354Z,13.05
2022-10-10T22:33:27.284Z,13.03
2022-10-10T22:35:54.858Z,12.96
2022-10-10T22:38:22.508Z,12.93
2022-10-10T22:40:50.221Z,12.99
2022-10-10T22:43:17.775Z,12.95
2022-10-10T22:45:45.694Z,12.83
2022-10-10T22:48:13.400Z,12.90
2022-10-10T22:50:42.427Z,12.81
2022-10-10T22:53:10.027Z,12.81
2022-10-10T22:55:37.611Z,12.78
2022-10-10T22:58:05.226Z,12.86
2022-10-10T23:00:33.092Z,12.93
2022-10-10T23:03:00.669Z,12.74
2022-10-10T23:05:28.271Z,12.67
2022-10-10T23:07:57.224Z,12.70
2022-10-10T23:10:24.899Z,12.60
2022-10-10T23:12:52.602Z,12.49
2022-10-10T23:15:20.235Z,12.35
2022-10-10T23:17:47.849Z,12.14
2022-10-10T23:20:15.471Z,12.18
2022-10-10T23:22:43.031Z,12.09
2022-10-10T23:25:12.113Z,12.09
2022-10-10T23:27:39.856Z,12.12
2022-10-10T23:30:08.376Z,12.15
2022-10-10T23:32:36.077Z,12.05
2022-10-10T23:35:03.652Z,12.03
2022-10-10T23:37:31.444Z,12.02
2022-10-10T23:39:59.068Z,12.13
2022-10-10T23:42:28.053Z,12.22
2022-10-10T23:44:55.684Z,12.37
2022-10-10T23:47:23.297Z,12.43
2022-10-10T23:49:50.847Z,12.35
2022-10-10T23:52:18.503Z,12.28
2022-10-10T23:54:46.132Z,12.41
2022-10-10T23:57:13.798Z,12.55
2022-10-10T23:59:42.774Z,12.53
